sensor_id;sensor_type;location;lat;lon;timestamp;temperature;humidity
19168;DHT22;9716;53.114;18.040;2024-03-02T00:01:55;9.70;99.90
19168;DHT22;9716;53.114;18.040;2024-03-02T00:04:24;9.70;99.90
19168;DHT22;9716;53.114;18.040;2024-03-02T00:06:52;9.70;99.90
19168;DHT22;9716;53.114;18.040;2024-03-02T00:09:22;9.70;99.90
19168;DHT22;9716;53.114;18.040;2024-03-02T00:11:51;9.70;99.90
19168;DHT22;9716;53.114;18.040;2024-03-02T00:14:20;9.70;99.90
19168;DHT22;9716;53.114;18.040;2024-03-02T00:16:51;9.60;99.90
19168;DHT22;9716;53.114;18.040;2024-03-02T00:19:20;9.60;99.90
19168;DHT22;9716;53.114;18.040;2024-03-02T00:21:49;9.60;99.90
19168;DHT22;9716;53.114;18.040;2024-03-02T00:24:21;9.60;99.90
19168;DHT22;9716;53.114;18.040;2024-03-02T00:26:50;9.60;99.90
19168;DHT22;9716;53.114;18.040;2024-03-02T00:29:18;9.60;99.90
19168;DHT22;9716;53.114;18.040;2024-03-02T00:31:49;9.60;99.90
19168;DHT22;9716;53.114;18.040;2024-03-02T00:34:18;9.60;99.90
19168;DHT22;9716;53.114;18.040;2024-03-02T00:36:47;9.60;99.90
19168;DHT22;9716;53.114;18.040;2024-03-02T00:39:16;9.50;99.90
19168;DHT22;9716;53.114;18.040;2024-03-02T00:41:45;9.50;99.90
19168;DHT22;9716;53.114;18.040;2024-03-02T00:44:16;9.50;99.90
19168;DHT22;9716;53.114;18.040;2024-03-02T00:46:44;9.50;99.90
19168;DHT22;9716;53.114;18.040;2024-03-02T00:49:20;9.50;99.90
19168;DHT22;9716;53.114;18.040;2024-03-02T00:51:51;9.50;99.90
19168;DHT22;9716;53.114;18.040;2024-03-02T00:54:21;9.50;99.90
19168;DHT22;9716;53.114;18.040;2024-03-02T00:56:52;9.50;99.90
19168;DHT22;9716;53.114;18.040;2024-03-02T00:59:25;9.50;99.90
19168;DHT22;9716;53.114;18.040;2024-03-02T01:01:54;9.50;99.90
19168;DHT22;9716;53.114;18.040;2024-03-02T01:04:24;9.40;99.90
19168;DHT22;9716;53.114;18.040;2024-03-02T01:06:53;9.40;99.90
19168;DHT22;9716;53.114;18.040;2024-03-02T01:09:22;9.40;99.90
19168;DHT22;9716;53.114;18.040;2024-03-02T01:11:50;9.40;99.90
19168;DHT22;9716;53.114;18.040;2024-03-02T01:14:19;9.40;99.90
19168;DHT22;9716;53.114;18.040;2024-03-02T01:16:48;9.40;99.90
19168;DHT22;9716;53.114;18.040;2024-03-02T01:19:17;9.40;99.90
19168;DHT22;9716;53.114;18.040;2024-03-02T01:21:47;9.30;99.90
19168;DHT22;9716;53.114;18.040;2024-03-02T01:24:18;9.40;99.90
19168;DHT22;9716;53.114;18.040;2024-03-02T01:26:46;9.30;99.90
19168;DHT22;9716;53.114;18.040;2024-03-02T01:29:15;9.30;99.90
19168;DHT22;9716;53.114;18.040;2024-03-02T01:31:43;9.30;99.90
19168;DHT22;9716;53.114;18.040;2024-03-02T01:34:12;9.30;99.90
19168;DHT22;9716;53.114;18.040;2024-03-02T01:36:41;9.30;99.90
19168;DHT22;9716;53.114;18.040;2024-03-02T01:39:11;9.30;99.90
19168;DHT22;9716;53.114;18.040;2024-03-02T01:41:39;9.20;99.90
19168;DHT22;9716;53.114;18.040;2024-03-02T01:44:08;9.20;99.90
19168;DHT22;9716;53.114;18.040;2024-03-02T01:46:37;9.20;99.90
19168;DHT22;9716;53.114;18.040;2024-03-02T01:49:06;9.20;99.90
19168;DHT22;9716;53.114;18.040;2024-03-02T01:51:34;9.20;99.90
19168;DHT22;9716;53.114;18.040;2024-03-02T01:54:03;9.30;99.90
19168;DHT22;9716;53.114;18.040;2024-03-02T01:56:33;9.20;99.90
19168;DHT22;9716;53.114;18.040;2024-03-02T01:59:02;9.20;99.90
19168;DHT22;9716;53.114;18.040;2024-03-02T02:01:31;9.10;99.90
19168;DHT22;9716;53.114;18.040;2024-03-02T02:04:00;9.10;99.90
19168;DHT22;9716;53.114;18.040;2024-03-02T02:06:28;9.20;99.90
19168;DHT22;9716;53.114;18.040;2024-03-02T02:08:57;9.10;99.90
19168;DHT22;9716;53.114;18.040;2024-03-02T02:11:26;9.10;99.90
19168;DHT22;9716;53.114;18.040;2024-03-02T02:13:56;9.10;99.90
19168;DHT22;9716;53.114;18.040;2024-03-02T02:16:25;9.00;99.90
19168;DHT22;9716;53.114;18.040;2024-03-02T02:18:53;9.00;99.90
19168;DHT22;9716;53.114;18.040;2024-03-02T02:21:24;8.90;99.90
19168;DHT22;9716;53.114;18.040;2024-03-02T02:23:53;8.90;99.90
19168;DHT22;9716;53.114;18.040;2024-03-02T02:26:21;8.90;99.90
19168;DHT22;9716;53.114;18.040;2024-03-02T02:28:50;8.80;99.90
19168;DHT22;9716;53.114;18.040;2024-03-02T02:31:19;8.70;99.90
19168;DHT22;9716;53.114;18.040;2024-03-02T02:33:48;8.70;99.90
19168;DHT22;9716;53.114;18.040;2024-03-02T02:36:16;8.70;99.90
19168;DHT22;9716;53.114;18.040;2024-03-02T02:38:47;8.60;99.90
19168;DHT22;9716;53.114;18.040;2024-03-02T02:41:17;8.60;99.90
19168;DHT22;9716;53.114;18.040;2024-03-02T02:43:46;8.60;99.90
19168;DHT22;9716;53.114;18.040;2024-03-02T02:46:14;8.50;99.90
19168;DHT22;9716;53.114;18.040;2024-03-02T02:48:43;8.50;99.90
19168;DHT22;9716;53.114;18.040;2024-03-02T02:51:12;8.50;99.90
19168;DHT22;9716;53.114;18.040;2024-03-02T02:53:41;8.40;99.90
19168;DHT22;9716;53.114;18.040;2024-03-02T02:56:10;8.40;99.90
19168;DHT22;9716;53.114;18.040;2024-03-02T02:58:40;8.40;99.90
19168;DHT22;9716;53.114;18.040;2024-03-02T03:01:09;8.30;99.90
19168;DHT22;9716;53.114;18.040;2024-03-02T03:03:38;8.30;99.90
19168;DHT22;9716;53.114;18.040;2024-03-02T03:06:07;8.20;99.90
19168;DHT22;9716;53.114;18.040;2024-03-02T03:08:35;8.20;99.90
19168;DHT22;9716;53.114;18.040;2024-03-02T03:11:04;8.20;99.90
19168;DHT22;9716;53.114;18.040;2024-03-02T03:13:35;8.20;99.90
19168;DHT22;9716;53.114;18.040;2024-03-02T03:16:03;8.10;99.90
19168;DHT22;9716;53.114;18.040;2024-03-02T03:18:33;8.10;99.90
19168;DHT22;9716;53.114;18.040;2024-03-02T03:21:01;8.10;99.90
19168;DHT22;9716;53.114;18.040;2024-03-02T03:23:30;8.00;99.90
19168;DHT22;9716;53.114;18.040;2024-03-02T03:25:58;8.00;99.90
19168;DHT22;9716;53.114;18.040;2024-03-02T03:28:28;8.00;99.90
19168;DHT22;9716;53.114;18.040;2024-03-02T03:30:58;8.00;99.90
19168;DHT22;9716;53.114;18.040;2024-03-02T03:33:27;8.00;99.90
19168;DHT22;9716;53.114;18.040;2024-03-02T03:35:55;8.00;99.90
19168;DHT22;9716;53.114;18.040;2024-03-02T03:38:24;8.00;99.90
19168;DHT22;9716;53.114;18.040;2024-03-02T03:40:52;8.10;99.90
19168;DHT22;9716;53.114;18.040;2024-03-02T03:43:21;8.10;99.90
19168;DHT22;9716;53.114;18.040;2024-03-02T03:45:50;8.10;99.90
19168;DHT22;9716;53.114;18.040;2024-03-02T03:48:20;8.10;99.90
19168;DHT22;9716;53.114;18.040;2024-03-02T03:50:48;8.20;99.90
19168;DHT22;9716;53.114;18.040;2024-03-02T03:53:17;8.20;99.90
19168;DHT22;9716;53.114;18.040;2024-03-02T03:55:45;8.20;99.90
19168;DHT22;9716;53.114;18.040;2024-03-02T03:58:16;8.20;99.90
19168;DHT22;9716;53.114;18.040;2024-03-02T04:00:49;8.20;99.90
19168;DHT22;9716;53.114;18.040;2024-03-02T04:03:17;8.20;99.90
19168;DHT22;9716;53.114;18.040;2024-03-02T04:05:47;8.30;99.90
19168;DHT22;9716;53.114;18.040;2024-03-02T04:08:16;8.20;99.90
19168;DHT22;9716;53.114;18.040;2024-03-02T04:10:44;8.30;99.90
19168;DHT22;9716;53.114;18.040;2024-03-02T04:13:14;8.30;99.90
19168;DHT22;9716;53.114;18.040;2024-03-02T04:15:42;8.30;99.90
19168;DHT22;9716;53.114;18.040;2024-03-02T04:18:11;8.30;99.90
19168;DHT22;9716;53.114;18.040;2024-03-02T04:20:40;8.30;99.90
19168;DHT22;9716;53.114;18.040;2024-03-02T04:23:10;8.30;99.90
19168;DHT22;9716;53.114;18.040;2024-03-02T04:25:39;8.30;99.90
19168;DHT22;9716;53.114;18.040;2024-03-02T04:28:07;8.30;99.90
19168;DHT22;9716;53.114;18.040;2024-03-02T04:30:36;8.40;99.90
19168;DHT22;9716;53.114;18.040;2024-03-02T04:33:05;8.30;99.90
19168;DHT22;9716;53.114;18.040;2024-03-02T04:35:37;8.30;99.90
19168;DHT22;9716;53.114;18.040;2024-03-02T04:38:06;8.30;99.90
19168;DHT22;9716;53.114;18.040;2024-03-02T04:40:36;8.30;99.90
19168;DHT22;9716;53.114;18.040;2024-03-02T04:43:04;8.30;99.90
19168;DHT22;9716;53.114;18.040;2024-03-02T04:45:33;8.30;99.90
19168;DHT22;9716;53.114;18.040;2024-03-02T04:48:02;8.40;99.90
19168;DHT22;9716;53.114;18.040;2024-03-02T04:50:31;8.30;99.90
19168;DHT22;9716;53.114;18.040;2024-03-02T04:53:00;8.30;99.90
19168;DHT22;9716;53.114;18.040;2024-03-02T04:55:29;8.30;99.90
19168;DHT22;9716;53.114;18.040;2024-03-02T04:58:16;8.30;99.90
19168;DHT22;9716;53.114;18.040;2024-03-02T05:00:45;8.30;99.90
19168;DHT22;9716;53.114;18.040;2024-03-02T05:03:14;8.30;99.90
19168;DHT22;9716;53.114;18.040;2024-03-02T05:05:43;8.30;99.90
19168;DHT22;9716;53.114;18.040;2024-03-02T05:08:11;8.30;99.90
19168;DHT22;9716;53.114;18.040;2024-03-02T05:10:40;8.30;99.90
19168;DHT22;9716;53.114;18.040;2024-03-02T05:13:09;8.30;99.90
19168;DHT22;9716;53.114;18.040;2024-03-02T05:15:39;8.30;99.90
19168;DHT22;9716;53.114;18.040;2024-03-02T05:18:07;8.30;99.90
19168;DHT22;9716;53.114;18.040;2024-03-02T05:20:36;8.30;99.90
19168;DHT22;9716;53.114;18.040;2024-03-02T05:23:05;8.30;99.90
19168;DHT22;9716;53.114;18.040;2024-03-02T05:25:34;8.30;99.90
19168;DHT22;9716;53.114;18.040;2024-03-02T05:28:03;8.30;99.90
19168;DHT22;9716;53.114;18.040;2024-03-02T05:30:32;8.30;99.90
19168;DHT22;9716;53.114;18.040;2024-03-02T05:33:02;8.30;99.90
19168;DHT22;9716;53.114;18.040;2024-03-02T05:35:34;8.30;99.90
19168;DHT22;9716;53.114;18.040;2024-03-02T05:38:02;8.40;99.90
19168;DHT22;9716;53.114;18.040;2024-03-02T05:40:31;8.30;99.90
19168;DHT22;9716;53.114;18.040;2024-03-02T05:42:59;8.30;99.90
19168;DHT22;9716;53.114;18.040;2024-03-02T05:45:28;8.30;99.90
19168;DHT22;9716;53.114;18.040;2024-03-02T05:47:57;8.40;99.90
19168;DHT22;9716;53.114;18.040;2024-03-02T05:50:27;8.30;99.90
19168;DHT22;9716;53.114;18.040;2024-03-02T05:52:56;8.40;99.90
19168;DHT22;9716;53.114;18.040;2024-03-02T05:55:26;8.40;99.90
19168;DHT22;9716;53.114;18.040;2024-03-02T05:57:54;8.40;99.90
19168;DHT22;9716;53.114;18.040;2024-03-02T06:00:39;8.40;99.90
19168;DHT22;9716;53.114;18.040;2024-03-02T06:03:07;8.30;99.90
19168;DHT22;9716;53.114;18.040;2024-03-02T06:05:38;8.40;99.90
19168;DHT22;9716;53.114;18.040;2024-03-02T06:08:07;8.40;99.90
19168;DHT22;9716;53.114;18.040;2024-03-02T06:10:36;8.40;99.90
19168;DHT22;9716;53.114;18.040;2024-03-02T06:13:05;8.40;99.90
19168;DHT22;9716;53.114;18.040;2024-03-02T06:15:34;8.40;99.90
19168;DHT22;9716;53.114;18.040;2024-03-02T06:18:04;8.40;99.90
19168;DHT22;9716;53.114;18.040;2024-03-02T06:20:34;8.40;99.90
19168;DHT22;9716;53.114;18.040;2024-03-02T06:23:05;8.40;99.90
19168;DHT22;9716;53.114;18.040;2024-03-02T06:25:33;8.40;99.90
19168;DHT22;9716;53.114;18.040;2024-03-02T06:28:02;8.50;99.90
19168;DHT22;9716;53.114;18.040;2024-03-02T06:30:32;8.50;99.90
19168;DHT22;9716;53.114;18.040;2024-03-02T06:33:00;8.50;99.90
19168;DHT22;9716;53.114;18.040;2024-03-02T06:35:31;8.50;99.90
19168;DHT22;9716;53.114;18.040;2024-03-02T06:38:00;8.60;99.90
19168;DHT22;9716;53.114;18.040;2024-03-02T06:40:30;8.70;99.90
19168;DHT22;9716;53.114;18.040;2024-03-02T06:42:59;8.60;99.90
19168;DHT22;9716;53.114;18.040;2024-03-02T06:45:28;8.70;99.90
19168;DHT22;9716;53.114;18.040;2024-03-02T06:47:57;8.60;99.90
19168;DHT22;9716;53.114;18.040;2024-03-02T06:50:26;8.60;99.90
19168;DHT22;9716;53.114;18.040;2024-03-02T06:52:56;8.70;99.90
19168;DHT22;9716;53.114;18.040;2024-03-02T06:55:25;8.70;99.90
19168;DHT22;9716;53.114;18.040;2024-03-02T06:57:54;8.70;99.90
19168;DHT22;9716;53.114;18.040;2024-03-02T07:00:23;8.70;99.90
19168;DHT22;9716;53.114;18.040;2024-03-02T07:02:52;8.80;99.90
19168;DHT22;9716;53.114;18.040;2024-03-02T07:05:21;8.80;99.90
19168;DHT22;9716;53.114;18.040;2024-03-02T07:07:49;8.90;99.90
19168;DHT22;9716;53.114;18.040;2024-03-02T07:10:18;8.90;99.90
19168;DHT22;9716;53.114;18.040;2024-03-02T07:12:47;8.90;99.90
19168;DHT22;9716;53.114;18.040;2024-03-02T07:15:17;8.90;99.90
19168;DHT22;9716;53.114;18.040;2024-03-02T07:18:22;8.90;99.90
19168;DHT22;9716;53.114;18.040;2024-03-02T07:20:51;8.90;99.90
19168;DHT22;9716;53.114;18.040;2024-03-02T07:23:19;8.90;99.90
19168;DHT22;9716;53.114;18.040;2024-03-02T07:25:51;8.90;99.90
19168;DHT22;9716;53.114;18.040;2024-03-02T07:28:24;8.90;99.90
19168;DHT22;9716;53.114;18.040;2024-03-02T07:30:59;9.00;99.90
19168;DHT22;9716;53.114;18.040;2024-03-02T07:33:28;9.10;99.90
19168;DHT22;9716;53.114;18.040;2024-03-02T07:35:59;9.10;99.90
19168;DHT22;9716;53.114;18.040;2024-03-02T07:38:31;9.20;99.90
19168;DHT22;9716;53.114;18.040;2024-03-02T07:41:02;9.20;99.90
19168;DHT22;9716;53.114;18.040;2024-03-02T07:43:31;9.30;99.90
19168;DHT22;9716;53.114;18.040;2024-03-02T07:46:02;9.40;99.90
19168;DHT22;9716;53.114;18.040;2024-03-02T07:48:55;9.40;99.90
19168;DHT22;9716;53.114;18.040;2024-03-02T07:51:24;9.50;99.90
19168;DHT22;9716;53.114;18.040;2024-03-02T07:53:53;9.70;99.90
19168;DHT22;9716;53.114;18.040;2024-03-02T07:56:22;9.90;99.90
19168;DHT22;9716;53.114;18.040;2024-03-02T07:58:51;10.20;99.90
19168;DHT22;9716;53.114;18.040;2024-03-02T08:01:21;10.60;99.90
19168;DHT22;9716;53.114;18.040;2024-03-02T08:03:50;11.00;99.90
19168;DHT22;9716;53.114;18.040;2024-03-02T08:06:20;11.40;99.90
19168;DHT22;9716;53.114;18.040;2024-03-02T08:08:49;11.80;99.90
19168;DHT22;9716;53.114;18.040;2024-03-02T08:11:17;12.00;99.90
19168;DHT22;9716;53.114;18.040;2024-03-02T08:13:46;12.10;99.90
19168;DHT22;9716;53.114;18.040;2024-03-02T08:16:15;12.20;99.90
19168;DHT22;9716;53.114;18.040;2024-03-02T08:18:48;12.30;99.90
19168;DHT22;9716;53.114;18.040;2024-03-02T08:21:18;12.40;99.90
19168;DHT22;9716;53.114;18.040;2024-03-02T08:23:46;12.40;99.90
19168;DHT22;9716;53.114;18.040;2024-03-02T08:26:15;12.40;99.90
19168;DHT22;9716;53.114;18.040;2024-03-02T08:28:44;12.40;99.90
19168;DHT22;9716;53.114;18.040;2024-03-02T08:31:16;12.50;99.90
19168;DHT22;9716;53.114;18.040;2024-03-02T08:33:44;12.60;99.90
19168;DHT22;9716;53.114;18.040;2024-03-02T08:36:15;12.80;99.90
19168;DHT22;9716;53.114;18.040;2024-03-02T08:38:44;12.90;99.90
19168;DHT22;9716;53.114;18.040;2024-03-02T08:41:13;13.10;99.90
19168;DHT22;9716;53.114;18.040;2024-03-02T08:43:43;13.20;99.90
19168;DHT22;9716;53.114;18.040;2024-03-02T08:46:12;13.30;99.90
19168;DHT22;9716;53.114;18.040;2024-03-02T08:48:41;13.40;99.90
19168;DHT22;9716;53.114;18.040;2024-03-02T08:51:10;13.60;99.90
19168;DHT22;9716;53.114;18.040;2024-03-02T08:53:40;13.80;99.90
19168;DHT22;9716;53.114;18.040;2024-03-02T08:56:10;13.90;99.90
19168;DHT22;9716;53.114;18.040;2024-03-02T08:58:39;14.00;99.90
19168;DHT22;9716;53.114;18.040;2024-03-02T09:01:07;14.10;99.90
19168;DHT22;9716;53.114;18.040;2024-03-02T09:03:36;14.10;99.90
19168;DHT22;9716;53.114;18.040;2024-03-02T09:06:05;14.00;99.90
19168;DHT22;9716;53.114;18.040;2024-03-02T09:08:33;14.00;99.90
19168;DHT22;9716;53.114;18.040;2024-03-02T09:11:05;13.90;99.90
19168;DHT22;9716;53.114;18.040;2024-03-02T09:13:37;13.90;99.90
19168;DHT22;9716;53.114;18.040;2024-03-02T09:16:06;13.80;99.90
19168;DHT22;9716;53.114;18.040;2024-03-02T09:18:38;13.80;99.90
19168;DHT22;9716;53.114;18.040;2024-03-02T09:21:07;13.80;99.90
19168;DHT22;9716;53.114;18.040;2024-03-02T09:23:35;13.70;99.90
19168;DHT22;9716;53.114;18.040;2024-03-02T09:26:05;13.70;99.90
19168;DHT22;9716;53.114;18.040;2024-03-02T09:28:34;13.80;99.90
19168;DHT22;9716;53.114;18.040;2024-03-02T09:31:05;13.80;99.90
19168;DHT22;9716;53.114;18.040;2024-03-02T09:33:34;13.80;99.90
19168;DHT22;9716;53.114;18.040;2024-03-02T09:36:03;13.70;99.90
19168;DHT22;9716;53.114;18.040;2024-03-02T09:38:32;13.80;99.90
19168;DHT22;9716;53.114;18.040;2024-03-02T09:41:01;13.80;99.90
19168;DHT22;9716;53.114;18.040;2024-03-02T09:43:32;13.90;99.90
19168;DHT22;9716;53.114;18.040;2024-03-02T09:46:01;13.90;99.90
19168;DHT22;9716;53.114;18.040;2024-03-02T09:48:30;13.90;99.90
19168;DHT22;9716;53.114;18.040;2024-03-02T09:51:00;13.90;99.90
19168;DHT22;9716;53.114;18.040;2024-03-02T09:53:32;13.90;99.90
19168;DHT22;9716;53.114;18.040;2024-03-02T09:56:01;13.90;99.90
19168;DHT22;9716;53.114;18.040;2024-03-02T09:58:31;14.00;99.90
19168;DHT22;9716;53.114;18.040;2024-03-02T10:01:00;14.10;99.90
19168;DHT22;9716;53.114;18.040;2024-03-02T10:03:29;14.10;99.90
19168;DHT22;9716;53.114;18.040;2024-03-02T10:06:20;14.10;99.90
19168;DHT22;9716;53.114;18.040;2024-03-02T10:08:51;14.00;99.90
19168;DHT22;9716;53.114;18.040;2024-03-02T10:11:27;13.90;99.90
19168;DHT22;9716;53.114;18.040;2024-03-02T10:14:09;13.90;99.90
19168;DHT22;9716;53.114;18.040;2024-03-02T10:16:39;14.00;99.90
19168;DHT22;9716;53.114;18.040;2024-03-02T10:19:18;14.10;99.90
19168;DHT22;9716;53.114;18.040;2024-03-02T10:21:47;14.20;99.90
19168;DHT22;9716;53.114;18.040;2024-03-02T10:24:21;14.20;99.90
19168;DHT22;9716;53.114;18.040;2024-03-02T10:26:53;14.20;99.90
19168;DHT22;9716;53.114;18.040;2024-03-02T10:29:25;14.30;99.90
19168;DHT22;9716;53.114;18.040;2024-03-02T10:31:55;14.40;99.90
19168;DHT22;9716;53.114;18.040;2024-03-02T10:34:26;14.50;99.90
19168;DHT22;9716;53.114;18.040;2024-03-02T10:36:59;14.70;99.90
19168;DHT22;9716;53.114;18.040;2024-03-02T10:39:30;14.70;99.90
19168;DHT22;9716;53.114;18.040;2024-03-02T10:41:59;14.80;99.90
19168;DHT22;9716;53.114;18.040;2024-03-02T10:44:32;14.80;99.90
19168;DHT22;9716;53.114;18.040;2024-03-02T10:47:03;14.90;99.90
19168;DHT22;9716;53.114;18.040;2024-03-02T10:49:33;14.90;99.90
19168;DHT22;9716;53.114;18.040;2024-03-02T10:52:02;14.90;99.90
19168;DHT22;9716;53.114;18.040;2024-03-02T10:54:31;15.00;99.90
19168;DHT22;9716;53.114;18.040;2024-03-02T10:57:05;15.00;99.90
19168;DHT22;9716;53.114;18.040;2024-03-02T10:59:46;15.00;99.90
19168;DHT22;9716;53.114;18.040;2024-03-02T11:02:20;15.00;99.90
19168;DHT22;9716;53.114;18.040;2024-03-02T11:04:50;14.90;99.90
19168;DHT22;9716;53.114;18.040;2024-03-02T11:07:25;14.90;99.90
19168;DHT22;9716;53.114;18.040;2024-03-02T11:10:00;14.90;99.90
19168;DHT22;9716;53.114;18.040;2024-03-02T11:12:39;14.90;99.90
19168;DHT22;9716;53.114;18.040;2024-03-02T11:15:11;14.80;99.90
19168;DHT22;9716;53.114;18.040;2024-03-02T11:17:44;14.70;99.90
19168;DHT22;9716;53.114;18.040;2024-03-02T11:20:13;14.60;99.90
19168;DHT22;9716;53.114;18.040;2024-03-02T11:22:43;14.60;99.90
19168;DHT22;9716;53.114;18.040;2024-03-02T11:25:23;14.60;99.90
19168;DHT22;9716;53.114;18.040;2024-03-02T11:28:05;14.60;99.90
19168;DHT22;9716;53.114;18.040;2024-03-02T11:30:52;14.50;99.90
19168;DHT22;9716;53.114;18.040;2024-03-02T11:33:25;14.50;99.90
19168;DHT22;9716;53.114;18.040;2024-03-02T11:35:58;14.50;99.90
19168;DHT22;9716;53.114;18.040;2024-03-02T11:38:31;14.40;99.90
19168;DHT22;9716;53.114;18.040;2024-03-02T11:41:06;14.40;99.90
19168;DHT22;9716;53.114;18.040;2024-03-02T11:43:40;14.30;99.90
19168;DHT22;9716;53.114;18.040;2024-03-02T11:46:10;14.30;99.90
19168;DHT22;9716;53.114;18.040;2024-03-02T11:48:41;14.30;99.90
19168;DHT22;9716;53.114;18.040;2024-03-02T11:51:09;14.30;99.90
19168;DHT22;9716;53.114;18.040;2024-03-02T11:53:41;14.30;99.90
19168;DHT22;9716;53.114;18.040;2024-03-02T11:56:12;14.40;99.90
19168;DHT22;9716;53.114;18.040;2024-03-02T11:58:42;14.50;99.90
19168;DHT22;9716;53.114;18.040;2024-03-02T12:01:13;14.40;99.90
19168;DHT22;9716;53.114;18.040;2024-03-02T12:03:42;14.40;99.90
19168;DHT22;9716;53.114;18.040;2024-03-02T12:06:11;14.40;99.90
19168;DHT22;9716;53.114;18.040;2024-03-02T12:08:41;14.40;99.90
19168;DHT22;9716;53.114;18.040;2024-03-02T12:11:13;14.30;99.90
19168;DHT22;9716;53.114;18.040;2024-03-02T12:13:52;14.30;99.90
19168;DHT22;9716;53.114;18.040;2024-03-02T12:16:26;14.30;99.90
19168;DHT22;9716;53.114;18.040;2024-03-02T12:18:58;14.20;99.90
19168;DHT22;9716;53.114;18.040;2024-03-02T12:21:30;14.20;99.90
19168;DHT22;9716;53.114;18.040;2024-03-02T12:24:07;14.20;99.90
19168;DHT22;9716;53.114;18.040;2024-03-02T12:26:36;14.20;99.90
19168;DHT22;9716;53.114;18.040;2024-03-02T12:29:05;14.20;99.90
19168;DHT22;9716;53.114;18.040;2024-03-02T12:31:35;14.20;99.90
19168;DHT22;9716;53.114;18.040;2024-03-02T12:34:04;14.20;99.90
19168;DHT22;9716;53.114;18.040;2024-03-02T12:36:37;14.20;99.90
19168;DHT22;9716;53.114;18.040;2024-03-02T12:39:07;14.30;99.90
19168;DHT22;9716;53.114;18.040;2024-03-02T12:41:36;14.30;99.90
19168;DHT22;9716;53.114;18.040;2024-03-02T12:44:06;14.30;99.90
19168;DHT22;9716;53.114;18.040;2024-03-02T12:46:35;14.30;99.90
19168;DHT22;9716;53.114;18.040;2024-03-02T12:49:08;14.30;99.90
19168;DHT22;9716;53.114;18.040;2024-03-02T12:51:40;14.40;99.90
19168;DHT22;9716;53.114;18.040;2024-03-02T12:54:10;14.40;99.90
19168;DHT22;9716;53.114;18.040;2024-03-02T12:56:40;14.50;99.90
19168;DHT22;9716;53.114;18.040;2024-03-02T12:59:18;14.50;99.90
19168;DHT22;9716;53.114;18.040;2024-03-02T13:01:53;14.40;99.90
19168;DHT22;9716;53.114;18.040;2024-03-02T13:04:25;14.40;99.90
19168;DHT22;9716;53.114;18.040;2024-03-02T13:06:55;14.30;99.90
19168;DHT22;9716;53.114;18.040;2024-03-02T13:09:26;14.20;99.90
19168;DHT22;9716;53.114;18.040;2024-03-02T13:11:55;14.10;99.90
19168;DHT22;9716;53.114;18.040;2024-03-02T13:14:24;14.10;99.90
19168;DHT22;9716;53.114;18.040;2024-03-02T13:16:54;14.10;99.90
19168;DHT22;9716;53.114;18.040;2024-03-02T13:19:27;14.10;99.90
19168;DHT22;9716;53.114;18.040;2024-03-02T13:21:58;14.10;99.90
19168;DHT22;9716;53.114;18.040;2024-03-02T13:24:27;14.10;99.90
19168;DHT22;9716;53.114;18.040;2024-03-02T13:26:56;14.10;99.90
19168;DHT22;9716;53.114;18.040;2024-03-02T13:29:25;14.00;99.90
19168;DHT22;9716;53.114;18.040;2024-03-02T13:31:56;13.90;99.90
19168;DHT22;9716;53.114;18.040;2024-03-02T13:34:25;13.90;99.90
19168;DHT22;9716;53.114;18.040;2024-03-02T13:36:53;13.90;99.90
19168;DHT22;9716;53.114;18.040;2024-03-02T13:39:22;13.80;99.90
19168;DHT22;9716;53.114;18.040;2024-03-02T13:41:51;13.80;99.90
19168;DHT22;9716;53.114;18.040;2024-03-02T13:44:24;13.80;99.90
19168;DHT22;9716;53.114;18.040;2024-03-02T13:46:53;13.90;99.90
19168;DHT22;9716;53.114;18.040;2024-03-02T13:49:23;13.90;99.90
19168;DHT22;9716;53.114;18.040;2024-03-02T13:51:58;14.00;99.90
19168;DHT22;9716;53.114;18.040;2024-03-02T13:54:28;14.10;99.90
19168;DHT22;9716;53.114;18.040;2024-03-02T13:56:56;14.20;99.90
19168;DHT22;9716;53.114;18.040;2024-03-02T13:59:26;14.10;99.90
19168;DHT22;9716;53.114;18.040;2024-03-02T14:01:55;14.10;99.90
19168;DHT22;9716;53.114;18.040;2024-03-02T14:04:25;14.10;99.90
19168;DHT22;9716;53.114;18.040;2024-03-02T14:06:53;14.00;99.90
19168;DHT22;9716;53.114;18.040;2024-03-02T14:09:24;14.00;99.90
19168;DHT22;9716;53.114;18.040;2024-03-02T14:11:55;14.00;99.90
19168;DHT22;9716;53.114;18.040;2024-03-02T14:14:24;14.00;99.90
19168;DHT22;9716;53.114;18.040;2024-03-02T14:16:53;13.90;99.90
19168;DHT22;9716;53.114;18.040;2024-03-02T14:19:24;13.90;99.90
19168;DHT22;9716;53.114;18.040;2024-03-02T14:21:53;13.90;99.90
19168;DHT22;9716;53.114;18.040;2024-03-02T14:24:22;13.90;99.90
19168;DHT22;9716;53.114;18.040;2024-03-02T14:27:08;13.80;99.90
19168;DHT22;9716;53.114;18.040;2024-03-02T14:30:04;13.70;99.90
19168;DHT22;9716;53.114;18.040;2024-03-02T14:32:35;13.60;99.90
19168;DHT22;9716;53.114;18.040;2024-03-02T14:35:06;13.60;99.90
19168;DHT22;9716;53.114;18.040;2024-03-02T14:37:37;13.60;99.90
19168;DHT22;9716;53.114;18.040;2024-03-02T14:40:10;13.50;99.90
19168;DHT22;9716;53.114;18.040;2024-03-02T14:42:39;13.50;99.90
19168;DHT22;9716;53.114;18.040;2024-03-02T14:45:14;13.50;99.90
19168;DHT22;9716;53.114;18.040;2024-03-02T14:48:05;13.40;99.90
19168;DHT22;9716;53.114;18.040;2024-03-02T14:50:54;13.40;99.90
19168;DHT22;9716;53.114;18.040;2024-03-02T14:53:26;13.50;99.90
19168;DHT22;9716;53.114;18.040;2024-03-02T14:55:58;13.50;99.90
19168;DHT22;9716;53.114;18.040;2024-03-02T14:58:27;13.60;99.90
19168;DHT22;9716;53.114;18.040;2024-03-02T15:00:56;13.60;99.90
19168;DHT22;9716;53.114;18.040;2024-03-02T15:03:24;13.70;99.90
19168;DHT22;9716;53.114;18.040;2024-03-02T15:06:09;13.70;99.90
19168;DHT22;9716;53.114;18.040;2024-03-02T15:08:38;13.70;99.90
19168;DHT22;9716;53.114;18.040;2024-03-02T15:11:08;13.70;99.90
19168;DHT22;9716;53.114;18.040;2024-03-02T15:13:38;13.80;99.90
19168;DHT22;9716;53.114;18.040;2024-03-02T15:16:07;13.80;99.90
19168;DHT22;9716;53.114;18.040;2024-03-02T15:18:36;13.80;99.90
19168;DHT22;9716;53.114;18.040;2024-03-02T15:21:04;13.80;99.90
19168;DHT22;9716;53.114;18.040;2024-03-02T15:23:35;13.80;99.90
19168;DHT22;9716;53.114;18.040;2024-03-02T15:26:04;13.80;99.90
19168;DHT22;9716;53.114;18.040;2024-03-02T15:28:34;13.80;99.90
19168;DHT22;9716;53.114;18.040;2024-03-02T15:31:03;13.80;99.90
19168;DHT22;9716;53.114;18.040;2024-03-02T15:33:32;13.70;99.90
19168;DHT22;9716;53.114;18.040;2024-03-02T15:36:01;13.70;99.90
19168;DHT22;9716;53.114;18.040;2024-03-02T15:38:40;13.70;99.90
19168;DHT22;9716;53.114;18.040;2024-03-02T15:41:15;13.70;99.90
19168;DHT22;9716;53.114;18.040;2024-03-02T15:43:44;13.60;99.90
19168;DHT22;9716;53.114;18.040;2024-03-02T15:46:15;13.60;99.90
19168;DHT22;9716;53.114;18.040;2024-03-02T15:48:44;13.50;99.90
19168;DHT22;9716;53.114;18.040;2024-03-02T15:51:13;13.40;99.90
19168;DHT22;9716;53.114;18.040;2024-03-02T15:53:43;13.40;99.90
19168;DHT22;9716;53.114;18.040;2024-03-02T15:56:12;13.30;99.90
19168;DHT22;9716;53.114;18.040;2024-03-02T15:58:41;13.20;99.90